Time;durP1;ratioP1;P1;durP2;ratioP2;P2;SDS_P1;SDS_P2;PMS_P1;PMS_P2;Temp;Humidity;BMP_temperature;BMP_pressure;BME280_temperature;BME280_humidity;BME280_pressure;Samples;Min_cycle;Max_cycle;Signal;HPM_P1;HPM_P2
2023/08/17 00:01:01;;;;;;;0.10;0.10;;;;;;;23.21;82.86;101270.38;4952464;29;20031;-93
2023/08/17 00:03:26;;;;;;;0.10;0.10;;;;;;;23.15;83.58;101266.50;4936301;29;20031;-91
2023/08/17 00:05:52;;;;;;;0.10;0.10;;;;;;;23.16;83.66;101265.50;4936447;29;20027;-91
2023/08/17 00:08:17;;;;;;;0.10;0.10;;;;;;;23.21;84.21;101269.56;4936322;29;20469;-92
2023/08/17 00:10:43;;;;;;;0.10;0.10;;;;;;;23.14;83.76;101245.53;4936305;29;20035;-91
2023/08/17 00:13:08;;;;;;;0.10;0.10;;;;;;;23.19;83.59;101254.66;4936204;29;20117;-90
2023/08/17 00:15:33;;;;;;;0.20;0.20;;;;;;;23.29;83.09;101269.66;4952321;28;20023;-91
2023/08/17 00:17:59;;;;;;;0.10;0.10;;;;;;;23.41;82.22;101265.91;4936546;29;20129;-90
2023/08/17 00:20:24;;;;;;;0.10;0.10;;;;;;;23.33;82.53;101263.97;4936433;29;20028;-90
2023/08/17 00:22:50;;;;;;;0.10;0.10;;;;;;;23.36;82.42;101265.47;4936024;29;20031;-91
2023/08/17 00:25:15;;;;;;;0.10;0.10;;;;;;;23.38;82.82;101263.53;4936308;29;20023;-91
2023/08/17 00:27:41;;;;;;;0.10;0.10;;;;;;;23.30;82.38;101266.03;4936080;29;20122;-90
2023/08/17 00:30:07;;;;;;;0.10;0.10;;;;;;;23.33;83.37;101265.78;4936014;29;20060;-91
2023/08/17 00:32:32;;;;;;;0.10;0.10;;;;;;;23.37;82.25;101259.22;4935799;29;20073;-90
2023/08/17 00:34:58;;;;;;;0.10;0.10;;;;;;;23.38;82.07;101266.16;4935943;29;20470;-90
2023/08/17 00:37:23;;;;;;;0.10;0.10;;;;;;;23.39;82.79;101266.00;4936197;29;20063;-92
2023/08/17 00:39:49;;;;;;;0.10;0.10;;;;;;;23.43;82.79;101261.31;4936406;29;20034;-89
2023/08/17 00:42:14;;;;;;;0.10;0.10;;;;;;;23.33;83.54;101263.13;4935808;29;20030;-91
2023/08/17 00:44:40;;;;;;;0.10;0.10;;;;;;;23.32;83.13;101253.56;4935934;29;20035;-90
2023/08/17 00:47:05;;;;;;;0.15;0.15;;;;;;;23.35;83.29;101253.25;4935886;29;20026;-90
2023/08/17 00:49:31;;;;;;;0.10;0.10;;;;;;;23.31;83.03;101251.88;4935863;29;20397;-89
2023/08/17 00:51:56;;;;;;;0.10;0.10;;;;;;;23.33;83.33;101261.31;4937498;29;20118;-90
2023/08/17 00:54:24;;;;;;;0.10;0.10;;;;;;;23.35;83.70;101264.66;4939583;29;20540;-92
2023/08/17 00:56:49;;;;;;;0.17;0.17;;;;;;;23.38;83.30;101268.81;4939504;29;20061;-91
2023/08/17 00:59:15;;;;;;;0.10;0.10;;;;;;;23.29;84.07;101265.19;4939340;29;20429;-91
2023/08/17 01:01:40;;;;;;;0.10;0.10;;;;;;;23.28;83.65;101260.91;4939359;29;20023;-91
2023/08/17 01:04:06;;;;;;;0.10;0.10;;;;;;;23.23;84.12;101249.13;4939147;29;20035;-92
2023/08/17 01:06:31;;;;;;;0.10;0.10;;;;;;;23.21;83.90;101256.34;4938832;29;20026;-89
2023/08/17 01:08:56;;;;;;;0.10;0.10;;;;;;;23.30;83.57;101272.16;4938897;29;20027;-91
2023/08/17 01:11:25;;;;;;;0.10;0.10;;;;;;;23.21;84.14;101266.91;4939049;29;20023;-91
2023/08/17 01:13:55;;;;;;;0.10;0.10;;;;;;;23.21;83.87;101261.63;4955143;28;20023;-91
2023/08/17 01:16:29;;;;;;;0.10;0.10;;;;;;;23.35;84.53;101271.75;4939289;29;20042;-92
2023/08/17 01:18:55;;;;;;;0.10;0.10;;;;;;;23.32;84.40;101274.66;4939204;29;20469;-91
2023/08/17 01:21:22;;;;;;;0.10;0.10;;;;;;;23.23;83.88;101280.78;4939450;29;20031;-90
2023/08/17 01:23:49;;;;;;;0.20;0.20;;;;;;;23.18;83.80;101278.56;4939163;29;20023;-90
2023/08/17 01:26:15;;;;;;;0.20;0.20;;;;;;;22.93;83.86;101242.22;4939151;29;20159;-91
2023/08/17 01:28:43;;;;;;;0.15;0.15;;;;;;;23.11;84.54;101283.59;4939150;29;20027;-91
2023/08/17 01:31:11;;;;;;;0.20;0.20;;;;;;;22.80;84.40;101235.38;4954608;28;20064;-90
2023/08/17 01:33:52;;;;;;;0.10;0.10;;;;;;;22.98;84.05;101267.19;4938428;29;20468;-92
2023/08/17 01:36:35;;;;;;;0.10;0.10;;;;;;;23.00;84.07;101261.78;4954657;29;20477;-91
2023/08/17 01:39:01;;;;;;;0.20;0.20;;;;;;;22.96;84.40;101266.50;4938741;29;20263;-90
2023/08/17 01:41:27;;;;;;;0.17;0.17;;;;;;;23.13;83.51;101281.63;4938872;29;20034;-91
2023/08/17 01:43:52;;;;;;;0.10;0.10;;;;;;;22.94;84.10;101255.25;4938877;29;20389;-90
2023/08/17 01:46:18;;;;;;;0.10;0.10;;;;;;;23.13;84.06;101289.56;4938803;29;20544;-91
2023/08/17 01:48:44;;;;;;;0.10;0.10;;;;;;;23.11;83.72;101288.88;4938820;29;20125;-90
2023/08/17 01:51:18;;;;;;;0.10;0.10;;;;;;;22.98;84.06;101274.28;4938879;29;20031;-91
2023/08/17 01:53:43;;;;;;;0.10;0.10;;;;;;;22.99;83.73;101279.41;4954582;29;20086;-91
2023/08/17 01:56:08;;;;;;;0.10;0.10;;;;;;;22.97;84.06;101273.44;4937957;29;20063;-90
2023/08/17 01:58:34;;;;;;;0.10;0.10;;;;;;;22.86;84.76;101276.22;4938009;29;20382;-90
2023/08/17 02:00:59;;;;;;;0.10;0.10;;;;;;;22.78;85.20;101265.50;4938358;29;20027;-91
2023/08/17 02:03:25;;;;;;;0.10;0.10;;;;;;;22.73;86.03;101265.09;4937771;29;20023;-91
2023/08/17 02:05:50;;;;;;;0.10;0.10;;;;;;;22.74;86.19;101279.94;4938130;29;20031;-92
2023/08/17 02:08:16;;;;;;;0.10;0.10;;;;;;;22.76;85.86;101272.72;4938108;29;20070;-91
2023/08/17 02:10:41;;;;;;;0.10;0.10;;;;;;;22.81;85.74;101268.72;4938125;29;20027;-90
2023/08/17 02:13:07;;;;;;;0.10;0.10;;;;;;;22.89;85.45;101278.56;4937889;29;20127;-90
2023/08/17 02:15:32;;;;;;;0.10;0.10;;;;;;;22.89;85.46;101275.94;4937920;29;20027;-90
2023/08/17 02:18:00;;;;;;;0.10;0.10;;;;;;;22.87;85.25;101269.97;4937886;29;20023;-90
2023/08/17 02:20:26;;;;;;;0.20;0.20;;;;;;;22.80;85.47;101274.94;4937682;29;20031;-91
2023/08/17 02:22:51;;;;;;;0.17;0.17;;;;;;;22.74;86.29;101269.41;4937579;29;20397;-91
2023/08/17 02:25:17;;;;;;;0.10;0.10;;;;;;;22.78;86.42;101268.97;4937571;29;20031;-90
2023/08/17 02:27:42;;;;;;;0.10;0.10;;;;;;;22.81;85.54;101270.50;4937670;29;20034;-91
2023/08/17 02:30:08;;;;;;;0.10;0.10;;;;;;;22.84;85.44;101275.53;4937633;29;20031;-90
2023/08/17 02:32:34;;;;;;;0.10;0.10;;;;;;;22.71;86.33;101270.47;4937128;29;20066;-90
2023/08/17 02:34:59;;;;;;;0.10;0.10;;;;;;;22.73;85.72;101271.19;4937783;29;20024;-90
2023/08/17 02:37:24;;;;;;;0.10;0.10;;;;;;;22.79;85.52;101262.72;4937507;29;20494;-90
2023/08/17 02:39:50;;;;;;;0.15;0.15;;;;;;;22.72;85.86;101260.78;4937405;29;20089;-92
2023/08/17 02:42:15;;;;;;;0.10;0.10;;;;;;;22.80;85.75;101268.81;4937171;29;20812;-92
2023/08/17 02:44:41;;;;;;;0.20;0.20;;;;;;;22.82;85.63;101265.09;4937389;29;20082;-90
2023/08/17 02:47:06;;;;;;;0.10;0.10;;;;;;;22.80;85.45;101263.53;4937262;29;20039;-91
2023/08/17 02:49:32;;;;;;;0.10;0.10;;;;;;;22.85;85.10;101277.19;4937193;29;20031;-92
2023/08/17 02:51:57;;;;;;;0.10;0.10;;;;;;;22.78;86.17;101274.25;4937196;29;20031;-90
2023/08/17 02:54:23;;;;;;;0.10;0.10;;;;;;;22.79;85.65;101269.81;4937190;29;20038;-91
2023/08/17 02:56:48;;;;;;;0.20;0.20;;;;;;;22.79;85.57;101273.25;4936761;29;20466;-91
2023/08/17 02:59:13;;;;;;;0.10;0.10;;;;;;;22.74;85.01;101259.69;4937311;29;20082;-91
2023/08/17 03:01:39;;;;;;;0.10;0.10;;;;;;;22.75;84.49;101257.88;4937961;29;20042;-92
2023/08/17 03:04:05;;;;;;;0.10;0.10;;;;;;;22.57;84.89;101247.16;4939014;29;20026;-91
2023/08/17 03:06:30;;;;;;;0.20;0.20;;;;;;;22.68;83.76;101262.84;4956226;29;20528;-92
2023/08/17 03:08:55;;;;;;;0.10;0.10;;;;;;;22.80;82.82;101264.38;4965739;29;20403;-92
2023/08/17 03:11:21;;;;;;;0.20;0.20;;;;;;;22.86;82.05;101268.31;4967439;29;20031;-92
2023/08/17 03:13:48;;;;;;;0.20;0.20;;;;;;;22.90;82.21;101275.78;4992918;28;20045;-93
2023/08/17 03:16:13;;;;;;;0.20;0.20;;;;;;;23.07;81.05;101271.63;4978584;28;20022;-92
2023/08/17 03:18:42;;;;;;;0.10;0.10;;;;;;;23.00;80.40;101223.03;5434523;22;20017;-90
2023/08/17 03:21:09;;;;;;;0.10;0.10;;;;;;;23.23;78.97;101228.00;5038644;28;20030;-92
2023/08/17 03:23:35;;;;;;;0.20;0.20;;;;;;;23.23;78.99;101228.00;5056541;28;20032;-92
2023/08/17 03:28:35;;;;;;;0.20;0.20;;;;;;;23.15;78.30;101223.44;5097789;22;20068;-92
2023/08/17 03:31:02;;;;;;;0.10;0.10;;;;;;;23.20;79.63;101247.56;5034974;28;20509;-92
2023/08/17 03:33:29;;;;;;;0.17;0.17;;;;;;;23.16;79.23;101233.84;5054159;28;20051;-92
2023/08/17 03:35:59;;;;;;;0.20;0.20;;;;;;;23.13;78.92;101242.06;5051388;28;20046;-93
2023/08/17 03:38:24;;;;;;;0.20;0.20;;;;;;;23.35;77.04;101275.22;5040457;28;20028;-92
2023/08/17 03:40:50;;;;;;;0.10;0.10;;;;;;;23.61;76.64;101286.03;4975165;28;20072;-91
2023/08/17 03:43:15;;;;;;;0.20;0.20;;;;;;;23.84;74.42;101296.22;4994325;28;20036;-93
2023/08/17 03:45:44;;;;;;;0.20;0.20;;;;;;;23.92;74.17;101299.00;5010757;28;20033;-91
2023/08/17 03:48:09;;;;;;;0.20;0.20;;;;;;;23.99;72.17;101294.75;4994211;28;20025;-91
2023/08/17 03:50:35;;;;;;;0.20;0.20;;;;;;;24.11;71.99;101300.72;4993970;28;20026;-91
2023/08/17 03:53:00;;;;;;;0.20;0.20;;;;;;;24.06;71.27;101300.31;4994379;28;20471;-91
2023/08/17 03:55:26;;;;;;;0.20;0.20;;;;;;;24.07;70.84;101313.38;4994532;28;20135;-91
2023/08/17 03:57:51;;;;;;;0.20;0.20;;;;;;;24.06;70.56;101311.72;4994135;28;20030;-93
2023/08/17 04:00:16;;;;;;;0.10;0.10;;;;;;;24.06;69.74;101290.56;4994268;28;20115;-92
2023/08/17 04:02:42;;;;;;;0.10;0.10;;;;;;;24.12;69.85;101316.44;5011753;28;20026;-91
2023/08/17 04:05:08;;;;;;;0.20;0.20;;;;;;;24.02;69.63;101318.28;4994075;28;20044;-92
2023/08/17 04:07:33;;;;;;;0.20;0.20;;;;;;;23.94;69.96;101326.94;4994094;28;20025;-90
2023/08/17 04:09:59;;;;;;;0.10;0.10;;;;;;;24.00;69.64;101329.00;4993714;28;20026;-91
2023/08/17 04:12:25;;;;;;;0.20;0.20;;;;;;;24.09;68.97;101322.00;4994175;28;20076;-90
2023/08/17 04:14:50;;;;;;;0.20;0.20;;;;;;;24.10;68.70;101309.63;5011540;28;20033;-93
2023/08/17 04:17:16;;;;;;;0.20;0.20;;;;;;;24.17;68.47;101330.03;4995055;28;20120;-91
2023/08/17 04:19:41;;;;;;;0.20;0.20;;;;;;;24.22;68.45;101327.78;4980269;28;20033;-91
2023/08/17 04:22:07;;;;;;;0.20;0.20;;;;;;;24.25;68.69;101330.13;5011884;28;20502;-89
2023/08/17 04:24:32;;;;;;;0.20;0.20;;;;;;;24.40;68.43;101334.97;5000349;28;20040;-87
2023/08/17 04:26:59;;;;;;;0.20;0.20;;;;;;;24.41;68.02;101336.63;5030100;28;20065;-91
2023/08/17 04:29:24;;;;;;;0.10;0.10;;;;;;;24.54;67.47;101337.09;4998548;28;20137;-84
2023/08/17 04:31:50;;;;;;;0.10;0.10;;;;;;;24.62;66.92;101318.69;5013196;28;20033;-88
2023/08/17 04:34:15;;;;;;;0.20;0.20;;;;;;;24.84;67.57;101336.75;5016117;28;20033;-92
2023/08/17 04:36:40;;;;;;;0.10;0.10;;;;;;;24.76;66.78;101341.97;4985031;28;20034;-91
2023/08/17 04:39:06;;;;;;;0.20;0.20;;;;;;;24.82;67.05;101340.53;5030459;28;20037;-91
2023/08/17 04:41:31;;;;;;;0.10;0.10;;;;;;;24.83;67.33;101343.03;5001096;28;20053;-90
2023/08/17 04:43:57;;;;;;;0.20;0.20;;;;;;;24.97;66.10;101348.78;5023247;28;20037;-91
2023/08/17 04:46:22;;;;;;;0.10;0.10;;;;;;;24.94;66.58;101333.22;5033000;28;20029;-88
2023/08/17 04:48:49;;;;;;;0.10;0.10;;;;;;;24.93;66.84;101348.25;5003238;28;20022;-90
2023/08/17 04:51:15;;;;;;;0.20;0.20;;;;;;;25.14;65.95;101369.16;5031255;28;20026;-90
2023/08/17 04:53:40;;;;;;;0.10;0.10;;;;;;;25.04;66.27;101361.28;5032438;28;20095;-87
2023/08/17 04:56:06;;;;;;;0.17;0.17;;;;;;;24.85;66.78;101342.88;5015121;28;20415;-85
2023/08/17 04:58:31;;;;;;;0.10;0.10;;;;;;;24.79;66.64;101333.75;5022002;28;20112;-89
2023/08/17 05:00:57;;;;;;;0.20;0.20;;;;;;;25.05;66.64;101362.13;5003647;28;20034;-89
2023/08/17 05:03:22;;;;;;;0.10;0.10;;;;;;;25.01;66.45;101360.75;5006719;28;20034;-85
2023/08/17 05:05:48;;;;;;;0.17;0.17;;;;;;;24.88;66.34;101347.91;5028123;28;20113;-86
2023/08/17 05:08:13;;;;;;;0.20;0.20;;;;;;;24.99;65.64;101360.06;5024178;28;20030;-84
2023/08/17 05:10:39;;;;;;;0.10;0.10;;;;;;;25.09;65.46;101363.50;5012304;28;20045;-83
2023/08/17 05:13:04;;;;;;;0.10;0.10;;;;;;;24.92;64.22;101361.66;5012680;28;20021;-83
2023/08/17 05:15:30;;;;;;;0.20;0.20;;;;;;;24.63;65.01;101345.97;5013692;28;20034;-89
2023/08/17 05:17:56;;;;;;;0.10;0.10;;;;;;;24.39;66.89;101352.66;5013653;28;20033;-86
2023/08/17 05:20:21;;;;;;;0.10;0.10;;;;;;;24.50;66.71;101360.38;5012947;28;20112;-87
2023/08/17 05:22:47;;;;;;;0.10;0.10;;;;;;;24.39;67.06;101355.31;4993373;28;20038;-84
2023/08/17 05:25:13;;;;;;;0.10;0.10;;;;;;;24.35;66.65;101353.06;5003433;28;20034;-86
2023/08/17 05:27:38;;;;;;;0.10;0.10;;;;;;;24.08;66.57;101359.97;5022262;28;20056;-89
2023/08/17 05:30:04;;;;;;;0.10;0.10;;;;;;;23.93;68.64;101345.56;5016063;28;20570;-87
2023/08/17 05:32:30;;;;;;;0.10;0.10;;;;;;;24.16;67.23;101346.88;5003932;28;20030;-89
2023/08/17 05:34:55;;;;;;;0.20;0.20;;;;;;;24.23;67.32;101361.19;5022375;28;20036;-86
2023/08/17 05:37:20;;;;;;;0.10;0.10;;;;;;;23.97;68.18;101350.41;5032693;28;20034;-89
2023/08/17 05:39:46;;;;;;;0.20;0.20;;;;;;;24.07;68.64;101368.06;5017616;28;20479;-89
2023/08/17 05:42:11;;;;;;;0.10;0.10;;;;;;;24.05;67.69;101352.34;5021879;28;20065;-86
2023/08/17 05:44:37;;;;;;;0.10;0.10;;;;;;;24.02;68.04;101358.75;5014605;28;20067;-84
2023/08/17 05:47:02;;;;;;;0.17;0.17;;;;;;;23.72;68.79;101327.28;5032685;28;20037;-86
2023/08/17 05:49:28;;;;;;;0.10;0.10;;;;;;;23.97;69.05;101363.63;5019216;28;20554;-85
2023/08/17 05:51:53;;;;;;;0.10;0.10;;;;;;;24.03;68.93;101370.16;5019024;28;20488;-87
2023/08/17 05:54:19;;;;;;;0.20;0.20;;;;;;;24.00;68.31;101351.97;5014429;28;20530;-89
2023/08/17 05:56:46;;;;;;;0.20;0.20;;;;;;;24.21;69.01;101379.00;5023527;28;20037;-87
2023/08/17 05:59:12;;;;;;;0.20;0.20;;;;;;;24.24;65.92;101380.50;5006799;28;20038;-91
2023/08/17 06:01:37;;;;;;;0.20;0.20;;;;;;;24.25;65.23;101359.22;4999117;28;20029;-90
2023/08/17 06:04:04;;;;;;;0.20;0.20;;;;;;;24.31;64.39;101377.19;5004348;28;20057;-88
2023/08/17 06:06:29;;;;;;;0.20;0.20;;;;;;;24.19;63.55;101349.25;5016337;28;20088;-88
2023/08/17 06:08:54;;;;;;;0.10;0.10;;;;;;;24.31;64.19;101356.03;5014550;28;20034;-92
2023/08/17 06:11:20;;;;;;;0.20;0.20;;;;;;;24.42;63.32;101383.25;5011343;28;20033;-89
2023/08/17 06:13:45;;;;;;;0.20;0.20;;;;;;;24.33;64.61;101362.97;4980159;28;20030;-90
2023/08/17 06:16:11;;;;;;;0.20;0.20;;;;;;;24.15;64.67;101342.56;4996089;28;20029;-93
2023/08/17 06:18:37;;;;;;;0.20;0.20;;;;;;;24.42;64.46;101372.69;5016125;28;20025;-89
2023/08/17 06:21:02;;;;;;;0.20;0.20;;;;;;;24.46;64.89;101377.50;5015385;28;20025;-90
2023/08/17 06:23:28;;;;;;;0.20;0.20;;;;;;;24.45;65.55;101375.03;5026068;28;20078;-92
2023/08/17 06:25:59;;;;;;;0.20;0.20;;;;;;;24.68;65.05;101380.72;5003013;28;20522;-92
2023/08/17 06:28:25;;;;;;;0.10;0.10;;;;;;;24.82;64.15;101389.00;5025971;28;20495;-91
2023/08/17 06:31:00;;;;;;;0.20;0.20;;;;;;;24.70;64.01;101370.84;5007558;28;20293;-93
2023/08/17 06:33:25;;;;;;;0.20;0.20;;;;;;;24.77;64.29;101375.38;5003819;28;20030;-90
2023/08/17 06:35:51;;;;;;;0.20;0.20;;;;;;;24.80;63.55;101375.09;4998279;28;20057;-91
2023/08/17 06:38:16;;;;;;;0.20;0.20;;;;;;;25.07;62.80;101383.97;5022307;28;20427;-92
2023/08/17 06:40:42;;;;;;;0.20;0.20;;;;;;;25.00;64.40;101385.56;4979756;28;20434;-92
2023/08/17 06:43:07;;;;;;;0.10;0.10;;;;;;;24.96;62.91;101378.88;4993172;28;20041;-92
2023/08/17 06:45:33;;;;;;;0.20;0.20;;;;;;;24.82;61.50;101359.91;4988431;28;20034;-93
2023/08/17 06:47:58;;;;;;;0.20;0.20;;;;;;;25.09;61.59;101380.22;5014129;28;20033;-92
2023/08/17 06:50:24;;;;;;;0.20;0.20;;;;;;;24.99;62.38;101383.91;5013040;28;20029;-92
2023/08/17 06:52:49;;;;;;;0.20;0.20;;;;;;;25.29;62.75;101394.16;4997603;28;20025;-90
2023/08/17 06:55:15;;;;;;;0.20;0.20;;;;;;;25.30;60.85;101387.03;5010245;28;20038;-94
2023/08/17 06:57:41;;;;;;;0.20;0.20;;;;;;;25.27;61.42;101385.53;4994490;28;20491;-89
2023/08/17 07:00:07;;;;;;;0.20;0.20;;;;;;;25.28;62.51;101389.84;5006959;28;20034;-90
2023/08/17 07:02:38;;;;;;;0.20;0.20;;;;;;;25.36;61.55;101376.63;5023005;28;20022;-94
2023/08/17 07:05:05;;;;;;;0.13;0.13;;;;;;;25.29;61.71;101383.53;4991223;28;20085;-93
2023/08/17 07:07:33;;;;;;;0.20;0.20;;;;;;;25.22;61.53;101385.13;4978967;28;20048;-92
2023/08/17 07:09:58;;;;;;;0.20;0.20;;;;;;;25.45;60.64;101386.31;4996714;28;20061;-93
2023/08/17 07:12:24;;;;;;;0.20;0.20;;;;;;;25.73;60.24;101376.44;4987824;28;20037;-93
2023/08/17 07:14:50;;;;;;;0.20;0.20;;;;;;;25.80;59.70;101384.63;5026780;28;20411;-92
2023/08/17 07:17:15;;;;;;;0.20;0.20;;;;;;;25.92;58.63;101383.38;5015682;28;20053;-93
2023/08/17 07:19:41;;;;;;;0.20;0.20;;;;;;;25.85;59.59;101371.72;4998170;28;20025;-92
2023/08/17 07:22:06;;;;;;;0.10;0.10;;;;;;;25.99;59.21;101368.50;5012372;28;20050;-92
2023/08/17 07:24:35;;;;;;;0.20;0.20;;;;;;;26.17;59.49;101384.34;5001435;28;20037;-92
2023/08/17 07:27:00;;;;;;;0.10;0.10;;;;;;;26.29;57.97;101380.41;5017957;28;20053;-93
2023/08/17 07:29:25;;;;;;;0.20;0.20;;;;;;;26.25;58.17;101378.22;5021737;28;20034;-90
2023/08/17 07:31:51;;;;;;;0.20;0.20;;;;;;;26.37;58.07;101387.63;5004337;28;20038;-91
2023/08/17 07:34:17;;;;;;;0.20;0.20;;;;;;;26.23;57.67;101374.91;5025117;28;20034;-93
2023/08/17 07:36:42;;;;;;;0.20;0.20;;;;;;;26.42;57.71;101380.00;4980064;28;20022;-92
2023/08/17 07:39:08;;;;;;;0.20;0.20;;;;;;;26.53;57.22;101386.84;5006615;28;20033;-93
2023/08/17 07:41:33;;;;;;;0.20;0.20;;;;;;;26.50;57.67;101385.34;5015202;28;20103;-92
2023/08/17 07:43:58;;;;;;;0.20;0.20;;;;;;;26.49;57.44;101374.91;5001681;28;20549;-92
2023/08/17 07:46:24;;;;;;;0.20;0.20;;;;;;;26.51;58.10;101381.69;5032318;28;20029;-93
2023/08/17 07:48:49;;;;;;;0.10;0.10;;;;;;;26.65;57.38;101379.44;5005312;28;20064;-91
2023/08/17 07:51:15;;;;;;;0.20;0.20;;;;;;;26.62;56.45;101390.34;4998764;28;20032;-92
2023/08/17 07:53:40;;;;;;;0.20;0.20;;;;;;;26.57;57.41;101389.03;4989213;28;20064;-90
2023/08/17 07:56:06;;;;;;;0.20;0.20;;;;;;;26.66;56.21;101367.81;5013797;28;20072;-90
2023/08/17 07:58:31;;;;;;;0.20;0.20;;;;;;;26.88;56.35;101377.81;4994456;28;20407;-93
2023/08/17 08:00:57;;;;;;;0.20;0.20;;;;;;;27.02;55.74;101381.66;5013750;28;20114;-90
2023/08/17 08:03:22;;;;;;;0.10;0.10;;;;;;;27.08;55.30;101373.06;5017355;28;20033;-88
2023/08/17 08:05:48;;;;;;;0.20;0.20;;;;;;;27.15;55.29;101371.41;5027784;28;20049;-91
2023/08/17 08:08:14;;;;;;;0.20;0.20;;;;;;;27.37;55.24;101365.44;5003774;28;20041;-91
2023/08/17 08:10:40;;;;;;;0.20;0.20;;;;;;;27.46;53.75;101360.13;5013843;28;20032;-91
2023/08/17 08:13:06;;;;;;;0.10;0.10;;;;;;;27.50;53.56;101358.78;5007110;28;20040;-91
2023/08/17 08:15:35;;;;;;;0.20;0.20;;;;;;;27.65;54.12;101362.44;5007365;28;20107;-91
2023/08/17 08:18:01;;;;;;;0.20;0.20;;;;;;;27.89;53.36;101364.22;4982957;28;20072;-88
2023/08/17 08:20:26;;;;;;;0.20;0.20;;;;;;;28.02;53.32;101361.84;5012590;28;20038;-91
2023/08/17 08:22:51;;;;;;;0.20;0.20;;;;;;;28.18;52.51;101363.63;5026424;28;20083;-92
2023/08/17 08:25:20;;;;;;;0.20;0.20;;;;;;;28.18;52.17;101363.63;5025663;28;20029;-90
2023/08/17 08:27:45;;;;;;;0.20;0.20;;;;;;;28.25;52.47;101352.13;4998804;28;20069;-89
2023/08/17 08:30:11;;;;;;;0.20;0.20;;;;;;;28.41;51.32;101353.06;5007307;28;20483;-91
2023/08/17 08:32:36;;;;;;;0.20;0.20;;;;;;;28.67;51.21;101352.78;5030387;28;20056;-92
2023/08/17 08:35:02;;;;;;;0.20;0.20;;;;;;;28.71;51.80;101362.91;5009706;28;20033;-91
2023/08/17 08:37:28;;;;;;;0.20;0.20;;;;;;;28.91;50.99;101365.13;5015688;28;20036;-90
2023/08/17 08:39:54;;;;;;;0.20;0.20;;;;;;;29.01;50.51;101361.25;5026126;28;20033;-90
2023/08/17 08:42:20;;;;;;;0.20;0.20;;;;;;;29.04;50.66;101346.75;5008082;28;20065;-88
2023/08/17 08:44:45;;;;;;;0.20;0.20;;;;;;;29.36;49.74;101349.13;5025981;28;20467;-86
2023/08/17 08:47:12;;;;;;;0.20;0.20;;;;;;;29.58;49.13;101351.94;5000013;28;20030;-86
2023/08/17 08:49:40;;;;;;;0.20;0.20;;;;;;;29.63;47.13;101354.91;5002526;28;20104;-86
2023/08/17 08:52:11;;;;;;;0.20;0.20;;;;;;;29.73;47.11;101355.47;5015084;28;20033;-84
2023/08/17 08:54:36;;;;;;;0.20;0.20;;;;;;;29.83;47.04;101350.69;5010016;28;20030;-88
2023/08/17 08:57:04;;;;;;;0.20;0.20;;;;;;;29.96;47.27;101350.84;4996915;28;20088;-89
2023/08/17 08:59:29;;;;;;;0.20;0.20;;;;;;;30.07;45.73;101343.44;5012454;28;20423;-86
2023/08/17 09:01:58;;;;;;;0.20;0.20;;;;;;;30.14;45.94;101339.03;5021817;28;20507;-94
2023/08/17 09:04:24;;;;;;;0.20;0.20;;;;;;;30.26;46.01;101337.53;5001360;28;20057;-92
2023/08/17 09:06:50;;;;;;;0.20;0.20;;;;;;;30.37;44.83;101342.38;5003352;28;20026;-88
2023/08/17 09:09:17;;;;;;;0.20;0.20;;;;;;;30.38;45.64;101338.69;5023154;28;20045;-92
2023/08/17 09:11:42;;;;;;;0.20;0.20;;;;;;;30.53;45.23;101341.34;4999227;28;20103;-93
2023/08/17 09:14:08;;;;;;;0.20;0.20;;;;;;;30.74;44.99;101324.53;4996666;28;20446;-91
2023/08/17 09:16:33;;;;;;;0.20;0.20;;;;;;;30.77;43.80;101329.47;5032576;28;20037;-88
2023/08/17 09:18:59;;;;;;;0.20;0.20;;;;;;;30.51;43.31;101316.66;5031788;28;20082;-90
2023/08/17 09:21:24;;;;;;;0.20;0.20;;;;;;;30.35;44.07;101328.41;5033555;28;20415;-89
2023/08/17 09:23:54;;;;;;;0.20;0.20;;;;;;;30.43;43.69;101319.47;5014946;28;20037;-88
2023/08/17 09:26:22;;;;;;;0.20;0.20;;;;;;;30.63;42.93;101314.31;5013604;28;20075;-90
2023/08/17 09:28:47;;;;;;;0.20;0.20;;;;;;;30.44;42.25;101321.09;5010679;28;20056;-89
2023/08/17 09:31:13;;;;;;;0.20;0.20;;;;;;;30.35;43.03;101306.22;5014576;28;20430;-92
2023/08/17 09:33:38;;;;;;;0.20;0.20;;;;;;;30.86;42.30;101314.16;5012846;28;20025;-88
2023/08/17 09:36:04;;;;;;;0.20;0.20;;;;;;;30.77;41.79;101305.44;5015665;28;20091;-88
2023/08/17 09:38:29;;;;;;;0.25;0.25;;;;;;;30.85;41.46;101299.97;4993299;28;20717;-91
2023/08/17 09:40:55;;;;;;;0.20;0.20;;;;;;;31.12;41.53;101299.19;5007159;28;20029;-90
2023/08/17 09:43:21;;;;;;;0.20;0.20;;;;;;;31.13;40.22;101300.00;4987665;28;20076;-87
2023/08/17 09:45:47;;;;;;;0.20;0.20;;;;;;;31.31;40.18;101299.56;5030697;28;20030;-91
2023/08/17 09:48:14;;;;;;;0.20;0.20;;;;;;;30.95;40.03;101287.13;5014767;28;20033;-87
2023/08/17 09:50:40;;;;;;;0.20;0.20;;;;;;;31.32;40.55;101293.19;5018933;28;20037;-87
2023/08/17 09:53:05;;;;;;;0.20;0.20;;;;;;;31.59;39.78;101289.69;4994569;28;20037;-84
2023/08/17 09:55:34;;;;;;;0.20;0.20;;;;;;;31.74;39.67;101292.22;5021275;28;20034;-85
2023/08/17 09:58:00;;;;;;;0.20;0.20;;;;;;;32.02;39.22;101272.63;5013892;28;20088;-86
2023/08/17 10:00:25;;;;;;;0.20;0.20;;;;;;;31.79;38.68;101273.75;5005291;28;20112;-87
2023/08/17 10:02:52;;;;;;;0.20;0.20;;;;;;;32.02;38.79;101278.78;4999374;28;20494;-86
2023/08/17 10:05:18;;;;;;;0.20;0.20;;;;;;;32.09;37.40;101284.19;5006428;28;20045;-92
2023/08/17 10:07:48;;;;;;;0.20;0.20;;;;;;;31.69;38.67;101278.63;4995195;28;20068;-91
2023/08/17 10:10:14;;;;;;;0.20;0.20;;;;;;;31.83;38.40;101276.84;4998319;28;20022;-91
2023/08/17 10:12:52;;;;;;;0.20;0.20;;;;;;;31.91;38.01;101279.38;4995170;28;20080;-91
2023/08/17 10:15:19;;;;;;;0.20;0.20;;;;;;;31.72;38.71;101262.16;4995256;28;20026;-88
2023/08/17 10:17:56;;;;;;;0.20;0.20;;;;;;;31.82;37.93;101269.84;4995364;28;20504;-90
2023/08/17 10:20:21;;;;;;;0.20;0.20;;;;;;;32.23;38.14;101253.75;5010551;28;20030;-87
2023/08/17 10:22:59;;;;;;;0.20;0.20;;;;;;;32.02;37.86;101246.69;5010155;28;20076;-88
2023/08/17 10:25:26;;;;;;;0.20;0.20;;;;;;;32.33;37.83;101264.09;5009604;28;20079;-91
2023/08/17 10:27:52;;;;;;;0.20;0.20;;;;;;;32.48;36.67;101251.34;4996249;28;20083;-90
2023/08/17 10:30:17;;;;;;;0.28;0.28;;;;;;;32.37;37.81;101246.59;4994875;28;20034;-91
2023/08/17 10:32:45;;;;;;;0.20;0.20;;;;;;;32.43;36.23;101221.69;5027130;28;20030;-87
2023/08/17 10:35:10;;;;;;;0.20;0.20;;;;;;;32.73;36.81;101239.00;5015125;28;20103;-87
2023/08/17 10:37:36;;;;;;;0.20;0.20;;;;;;;32.53;35.69;101211.38;5013171;28;20613;-87
2023/08/17 10:40:01;;;;;;;0.20;0.20;;;;;;;32.87;35.30;101207.72;5013462;28;20483;-86
2023/08/17 10:42:35;;;;;;;0.20;0.20;;;;;;;32.96;35.69;101216.38;5029083;28;20484;-88
2023/08/17 10:45:03;;;;;;;0.20;0.20;;;;;;;32.90;36.10;101206.47;5029736;28;20098;-84
2023/08/17 10:47:30;;;;;;;0.30;0.30;;;;;;;33.40;35.12;101234.44;5029967;28;20108;-87
2023/08/17 10:50:35;;;;;;;0.30;0.30;;;;;;;33.43;35.11;101244.75;4997120;28;20494;-86
2023/08/17 10:53:08;;;;;;;0.20;0.20;;;;;;;33.33;35.83;101225.56;5014722;28;20407;-85
2023/08/17 10:55:41;;;;;;;0.22;0.22;;;;;;;33.67;35.35;101233.34;5012819;28;20415;-87
2023/08/17 10:58:10;;;;;;;0.20;0.20;;;;;;;33.37;33.80;101229.50;4994566;28;20050;-87
2023/08/17 11:00:36;;;;;;;0.20;0.20;;;;;;;33.51;34.78;101224.91;5017486;28;20143;-89
2023/08/17 11:03:12;;;;;;;0.20;0.20;;;;;;;33.69;33.57;101214.31;5011901;28;20028;-88
2023/08/17 11:05:55;;;;;;;0.30;0.30;;;;;;;33.58;34.30;101217.69;5012241;28;20454;-93
2023/08/17 11:08:40;;;;;;;0.20;0.20;;;;;;;33.68;33.52;101215.38;5016239;28;20029;-92
2023/08/17 11:11:13;;;;;;;0.20;0.20;;;;;;;33.76;34.16;101217.81;4996547;28;20030;-89
2023/08/17 11:13:39;;;;;;;0.20;0.20;;;;;;;33.65;34.34;101222.00;5005353;28;20053;-85
2023/08/17 11:16:05;;;;;;;0.22;0.22;;;;;;;33.88;34.60;101197.34;5019367;28;20495;-86
2023/08/17 11:18:31;;;;;;;0.30;0.30;;;;;;;34.10;33.70;101207.75;5013287;28;20059;-85
2023/08/17 11:20:57;;;;;;;0.30;0.30;;;;;;;34.17;33.74;101195.09;5029409;28;20022;-86
2023/08/17 11:23:22;;;;;;;0.30;0.30;;;;;;;34.05;33.42;101196.84;5013557;28;20056;-87